sensor_id;sensor_type;location;lat;lon;timestamp;pressure;altitude;pressure_sealevel;temperature;humidity
10587;BME280;5341;47.606;7.576;2023-02-23T00:01:36;98504.59;;;12.49;61.81
10587;BME280;5341;47.606;7.576;2023-02-23T00:04:04;98506.47;;;12.49;61.95
10587;BME280;5341;47.606;7.576;2023-02-23T00:06:33;98507.50;;;12.48;61.97
10587;BME280;5341;47.606;7.576;2023-02-23T00:09:02;98517.19;;;12.49;61.94
10587;BME280;5341;47.606;7.576;2023-02-23T00:11:40;98504.81;;;12.48;61.98
10587;BME280;5341;47.606;7.576;2023-02-23T00:14:07;98508.50;;;12.47;62.47
10587;BME280;5341;47.606;7.576;2023-02-23T00:16:35;98509.72;;;12.44;62.32
10587;BME280;5341;47.606;7.576;2023-02-23T00:19:02;98512.22;;;12.46;62.02
10587;BME280;5341;47.606;7.576;2023-02-23T00:21:32;98505.19;;;12.45;62.53
10587;BME280;5341;47.606;7.576;2023-02-23T00:24:02;98505.19;;;12.45;62.58
10587;BME280;5341;47.606;7.576;2023-02-23T00:26:31;98500.03;;;12.43;62.12
10587;BME280;5341;47.606;7.576;2023-02-23T00:29:02;98503.53;;;12.44;62.41
10587;BME280;5341;47.606;7.576;2023-02-23T00:31:30;98506.22;;;12.44;62.33
10587;BME280;5341;47.606;7.576;2023-02-23T00:34:00;98499.22;;;12.43;62.60
10587;BME280;5341;47.606;7.576;2023-02-23T00:36:30;98486.63;;;12.43;62.04
10587;BME280;5341;47.606;7.576;2023-02-23T00:39:00;98493.84;;;12.43;62.41
10587;BME280;5341;47.606;7.576;2023-02-23T00:41:27;98486.00;;;12.41;62.31
10587;BME280;5341;47.606;7.576;2023-02-23T00:43:57;98480.63;;;12.41;62.21
10587;BME280;5341;47.606;7.576;2023-02-23T00:46:28;98482.50;;;12.41;62.28
10587;BME280;5341;47.606;7.576;2023-02-23T00:48:57;98479.81;;;12.41;62.38
10587;BME280;5341;47.606;7.576;2023-02-23T00:51:26;98483.53;;;12.40;62.17
10587;BME280;5341;47.606;7.576;2023-02-23T00:53:56;98479.00;;;12.40;62.29
10587;BME280;5341;47.606;7.576;2023-02-23T00:56:24;98484.56;;;12.39;62.29
10587;BME280;5341;47.606;7.576;2023-02-23T00:58:53;98480.84;;;12.40;62.11
10587;BME280;5341;47.606;7.576;2023-02-23T01:01:21;98485.59;;;12.38;62.42
10587;BME280;5341;47.606;7.576;2023-02-23T01:03:51;98480.22;;;12.38;62.78
10587;BME280;5341;47.606;7.576;2023-02-23T01:06:19;98478.38;;;12.38;62.27
10587;BME280;5341;47.606;7.576;2023-02-23T01:08:48;98478.56;;;12.37;62.69
10587;BME280;5341;47.606;7.576;2023-02-23T01:11:17;98473.22;;;12.37;62.68
10587;BME280;5341;47.606;7.576;2023-02-23T01:13:46;98476.72;;;12.37;62.72
10587;BME280;5341;47.606;7.576;2023-02-23T01:16:15;98470.53;;;12.37;62.56
10587;BME280;5341;47.606;7.576;2023-02-23T01:18:44;98468.66;;;12.37;62.65
10587;BME280;5341;47.606;7.576;2023-02-23T01:21:17;98464.13;;;12.38;62.76
10587;BME280;5341;47.606;7.576;2023-02-23T01:23:45;98458.13;;;12.36;62.70
10587;BME280;5341;47.606;7.576;2023-02-23T01:26:16;98460.63;;;12.37;62.96
10587;BME280;5341;47.606;7.576;2023-02-23T01:28:46;98457.13;;;12.37;62.64
10587;BME280;5341;47.606;7.576;2023-02-23T01:31:14;98460.78;;;12.36;62.79
10587;BME280;5341;47.606;7.576;2023-02-23T01:33:42;98459.97;;;12.35;62.72
10587;BME280;5341;47.606;7.576;2023-02-23T01:36:11;98456.47;;;12.35;62.48
10587;BME280;5341;47.606;7.576;2023-02-23T01:38:41;98452.97;;;12.34;62.88
10587;BME280;5341;47.606;7.576;2023-02-23T01:41:09;98456.66;;;12.33;62.35
10587;BME280;5341;47.606;7.576;2023-02-23T01:43:54;98457.50;;;12.33;62.97
10587;BME280;5341;47.606;7.576;2023-02-23T01:46:22;98455.22;;;12.30;62.72
10587;BME280;5341;47.606;7.576;2023-02-23T01:48:51;98455.22;;;12.30;62.35
10587;BME280;5341;47.606;7.576;2023-02-23T01:51:23;98452.53;;;12.30;62.47
10587;BME280;5341;47.606;7.576;2023-02-23T01:53:56;98457.91;;;12.30;62.86
10587;BME280;5341;47.606;7.576;2023-02-23T01:56:28;98461.63;;;12.29;62.57
10587;BME280;5341;47.606;7.576;2023-02-23T01:58:57;98459.75;;;12.30;62.70
10587;BME280;5341;47.606;7.576;2023-02-23T02:01:28;98457.28;;;12.28;62.74
10587;BME280;5341;47.606;7.576;2023-02-23T02:03:57;98458.09;;;12.29;62.78
10587;BME280;5341;47.606;7.576;2023-02-23T02:06:28;98458.09;;;12.29;62.63
10587;BME280;5341;47.606;7.576;2023-02-23T02:09:01;98461.00;;;12.27;63.14
10587;BME280;5341;47.606;7.576;2023-02-23T02:11:32;98457.50;;;12.27;62.56
10587;BME280;5341;47.606;7.576;2023-02-23T02:14:05;98458.53;;;12.26;62.73
10587;BME280;5341;47.606;7.576;2023-02-23T02:16:50;98455.84;;;12.26;63.04
10587;BME280;5341;47.606;7.576;2023-02-23T02:19:49;98450.47;;;12.26;62.99
10587;BME280;5341;47.606;7.576;2023-02-23T02:22:47;98444.28;;;12.25;63.11
10587;BME280;5341;47.606;7.576;2023-02-23T02:25:32;98443.63;;;12.23;62.81
10587;BME280;5341;47.606;7.576;2023-02-23T02:28:29;98440.97;;;12.23;62.69
10587;BME280;5341;47.606;7.576;2023-02-23T02:31:35;98435.59;;;12.23;62.90
10587;BME280;5341;47.606;7.576;2023-02-23T02:37:27;98433.13;;;12.22;63.05
10587;BME280;5341;47.606;7.576;2023-02-23T02:40:02;98436.81;;;12.21;62.78
10587;BME280;5341;47.606;7.576;2023-02-23T02:42:52;98440.34;;;12.21;62.66
10587;BME280;5341;47.606;7.576;2023-02-23T02:45:27;98437.66;;;12.21;62.80
10587;BME280;5341;47.606;7.576;2023-02-23T02:48:01;98431.47;;;12.21;62.90
10587;BME280;5341;47.606;7.576;2023-02-23T02:50:40;98434.16;;;12.21;62.71
10587;BME280;5341;47.606;7.576;2023-02-23T02:53:16;98437.66;;;12.21;63.43
10587;BME280;5341;47.606;7.576;2023-02-23T02:55:47;98433.94;;;12.22;62.79
10587;BME280;5341;47.606;7.576;2023-02-23T02:58:16;98439.31;;;12.22;63.02
10587;BME280;5341;47.606;7.576;2023-02-23T03:00:46;98438.47;;;12.22;62.79
10587;BME280;5341;47.606;7.576;2023-02-23T03:03:35;98439.31;;;12.22;63.01
10587;BME280;5341;47.606;7.576;2023-02-23T03:06:23;98433.94;;;12.22;63.05
10587;BME280;5341;47.606;7.576;2023-02-23T03:09:24;98434.97;;;12.21;63.44
10587;BME280;5341;47.606;7.576;2023-02-23T03:12:25;98426.94;;;12.21;63.15
10587;BME280;5341;47.606;7.576;2023-02-23T03:15:23;98422.59;;;12.20;63.55
10587;BME280;5341;47.606;7.576;2023-02-23T03:18:20;98420.94;;;12.19;62.90
10587;BME280;5341;47.606;7.576;2023-02-23T03:21:15;98429.81;;;12.20;63.40
10587;BME280;5341;47.606;7.576;2023-02-23T03:24:10;98419.09;;;12.20;63.19
10587;BME280;5341;47.606;7.576;2023-02-23T03:27:04;98429.81;;;12.20;63.16
10587;BME280;5341;47.606;7.576;2023-02-23T03:29:57;98422.81;;;12.19;63.23
10587;BME280;5341;47.606;7.576;2023-02-23T03:32:46;98429.00;;;12.19;63.32
10587;BME280;5341;47.606;7.576;2023-02-23T03:35:38;98425.50;;;12.19;63.30
10587;BME280;5341;47.606;7.576;2023-02-23T03:38:28;98424.44;;;12.20;63.52
10587;BME280;5341;47.606;7.576;2023-02-23T03:41:19;98425.50;;;12.19;63.29
10587;BME280;5341;47.606;7.576;2023-02-23T03:44:09;98428.16;;;12.19;63.39
10587;BME280;5341;47.606;7.576;2023-02-23T03:46:58;98430.03;;;12.18;62.92
10587;BME280;5341;47.606;7.576;2023-02-23T03:49:47;98430.03;;;12.18;63.44
10587;BME280;5341;47.606;7.576;2023-02-23T03:52:40;98430.84;;;12.19;63.36
10587;BME280;5341;47.606;7.576;2023-02-23T03:55:29;98432.69;;;12.18;63.21
10587;BME280;5341;47.606;7.576;2023-02-23T03:58:17;98429.19;;;12.18;63.51
10587;BME280;5341;47.606;7.576;2023-02-23T04:01:08;98427.34;;;12.18;63.23
10587;BME280;5341;47.606;7.576;2023-02-23T04:03:55;98431.88;;;12.18;63.71
10587;BME280;5341;47.606;7.576;2023-02-23T04:06:44;98437.25;;;12.18;63.20
10587;BME280;5341;47.606;7.576;2023-02-23T04:09:30;98428.38;;;12.17;64.07
10587;BME280;5341;47.606;7.576;2023-02-23T04:12:21;98429.19;;;12.18;63.49
10587;BME280;5341;47.606;7.576;2023-02-23T04:15:14;98421.16;;;12.18;63.35
10587;BME280;5341;47.606;7.576;2023-02-23T04:17:45;98421.97;;;12.18;63.90
10587;BME280;5341;47.606;7.576;2023-02-23T04:20:14;98416.63;;;12.18;63.85
10587;BME280;5341;47.606;7.576;2023-02-23T04:22:42;98419.28;;;12.18;63.71
10587;BME280;5341;47.606;7.576;2023-02-23T04:25:10;98421.97;;;12.18;63.55
10587;BME280;5341;47.606;7.576;2023-02-23T04:27:39;98418.47;;;12.18;63.45
10587;BME280;5341;47.606;7.576;2023-02-23T04:30:07;98422.81;;;12.19;63.50
10587;BME280;5341;47.606;7.576;2023-02-23T04:32:36;98428.16;;;12.19;63.10
10587;BME280;5341;47.606;7.576;2023-02-23T04:35:06;98429.00;;;12.19;63.58
10587;BME280;5341;47.606;7.576;2023-02-23T04:37:33;98429.81;;;12.20;63.47
10587;BME280;5341;47.606;7.576;2023-02-23T04:40:01;98430.84;;;12.19;63.46
10587;BME280;5341;47.606;7.576;2023-02-23T04:42:28;98429.00;;;12.19;63.42
10587;BME280;5341;47.606;7.576;2023-02-23T04:44:56;98427.13;;;12.20;63.33
10587;BME280;5341;47.606;7.576;2023-02-23T04:47:24;98426.31;;;12.19;63.39
10587;BME280;5341;47.606;7.576;2023-02-23T04:49:51;98424.44;;;12.20;63.90
10587;BME280;5341;47.606;7.576;2023-02-23T04:52:20;98427.13;;;12.20;63.49
10587;BME280;5341;47.606;7.576;2023-02-23T04:54:48;98427.13;;;12.20;64.19
10587;BME280;5341;47.606;7.576;2023-02-23T04:57:15;98426.09;;;12.21;64.09
10587;BME280;5341;47.606;7.576;2023-02-23T04:59:42;98422.59;;;12.20;63.94
10587;BME280;5341;47.606;7.576;2023-02-23T05:02:10;98426.09;;;12.21;63.79
10587;BME280;5341;47.606;7.576;2023-02-23T05:04:37;98412.69;;;12.21;64.02
10587;BME280;5341;47.606;7.576;2023-02-23T05:07:05;98416.41;;;12.20;63.59
10587;BME280;5341;47.606;7.576;2023-02-23T05:09:33;98424.44;;;12.20;64.15
10587;BME280;5341;47.606;7.576;2023-02-23T05:12:01;98427.13;;;12.20;63.65
10587;BME280;5341;47.606;7.576;2023-02-23T05:14:28;98429.81;;;12.20;63.58
10587;BME280;5341;47.606;7.576;2023-02-23T05:16:56;98429.81;;;12.20;63.83
10587;BME280;5341;47.606;7.576;2023-02-23T05:19:23;98421.97;;;12.18;63.95
10587;BME280;5341;47.606;7.576;2023-02-23T05:21:51;98434.34;;;12.19;64.13
10587;BME280;5341;47.606;7.576;2023-02-23T05:24:18;98428.16;;;12.19;64.02
10587;BME280;5341;47.606;7.576;2023-02-23T05:26:47;98427.34;;;12.18;63.69
10587;BME280;5341;47.606;7.576;2023-02-23T05:29:14;98438.88;;;12.19;63.76
10587;BME280;5341;47.606;7.576;2023-02-23T05:31:42;98437.25;;;12.18;63.85
10587;BME280;5341;47.606;7.576;2023-02-23T05:34:10;98435.59;;;12.17;63.86
10587;BME280;5341;47.606;7.576;2023-02-23T05:36:37;98432.09;;;12.16;63.65
10587;BME280;5341;47.606;7.576;2023-02-23T05:39:04;98435.78;;;12.15;64.15
10587;BME280;5341;47.606;7.576;2023-02-23T05:41:32;98434.75;;;12.16;63.84
10587;BME280;5341;47.606;7.576;2023-02-23T05:44:01;98439.28;;;12.16;64.21
10587;BME280;5341;47.606;7.576;2023-02-23T05:46:28;98435.78;;;12.15;63.69
10587;BME280;5341;47.606;7.576;2023-02-23T05:48:57;98436.63;;;12.16;63.81
10587;BME280;5341;47.606;7.576;2023-02-23T05:51:26;98435.78;;;12.15;64.19
10587;BME280;5341;47.606;7.576;2023-02-23T05:53:53;98439.50;;;12.14;63.83
10587;BME280;5341;47.606;7.576;2023-02-23T05:56:21;98432.50;;;12.13;63.84
10587;BME280;5341;47.606;7.576;2023-02-23T05:58:49;98435.16;;;12.13;63.82
10587;BME280;5341;47.606;7.576;2023-02-23T06:01:19;98420.94;;;12.13;63.62
10587;BME280;5341;47.606;7.576;2023-02-23T06:03:47;98425.47;;;12.12;63.64
10587;BME280;5341;47.606;7.576;2023-02-23T06:06:16;98422.78;;;12.12;64.06
10587;BME280;5341;47.606;7.576;2023-02-23T06:08:43;98421.97;;;12.12;63.54
10587;BME280;5341;47.606;7.576;2023-02-23T06:11:11;98422.78;;;12.12;63.94
10587;BME280;5341;47.606;7.576;2023-02-23T06:13:38;98421.13;;;12.11;63.86
10587;BME280;5341;47.606;7.576;2023-02-23T06:16:07;98430.19;;;12.10;63.65
10587;BME280;5341;47.606;7.576;2023-02-23T06:18:35;98426.69;;;12.10;64.08
10587;BME280;5341;47.606;7.576;2023-02-23T06:21:03;98421.31;;;12.10;63.93
10587;BME280;5341;47.606;7.576;2023-02-23T06:23:31;98430.19;;;12.10;63.86
10587;BME280;5341;47.606;7.576;2023-02-23T06:25:59;98431.22;;;12.09;63.53
10587;BME280;5341;47.606;7.576;2023-02-23T06:28:26;98433.88;;;12.09;63.57
10587;BME280;5341;47.606;7.576;2023-02-23T06:30:54;98434.94;;;12.08;63.94
10587;BME280;5341;47.606;7.576;2023-02-23T06:33:22;98438.44;;;12.09;63.82
10587;BME280;5341;47.606;7.576;2023-02-23T06:35:52;98440.28;;;12.08;64.02
10587;BME280;5341;47.606;7.576;2023-02-23T06:38:20;98441.31;;;12.07;63.76
10587;BME280;5341;47.606;7.576;2023-02-23T06:40:48;98455.53;;;12.08;64.04
10587;BME280;5341;47.606;7.576;2023-02-23T06:43:16;98452.84;;;12.08;63.78
10587;BME280;5341;47.606;7.576;2023-02-23T06:45:45;98457.38;;;12.07;64.26
10587;BME280;5341;47.606;7.576;2023-02-23T06:48:12;98465.44;;;12.07;63.93
10587;BME280;5341;47.606;7.576;2023-02-23T06:50:39;98470.78;;;12.07;64.37
10587;BME280;5341;47.606;7.576;2023-02-23T06:53:09;98466.47;;;12.06;64.26
10587;BME280;5341;47.606;7.576;2023-02-23T06:55:37;98467.28;;;12.07;63.86
10587;BME280;5341;47.606;7.576;2023-02-23T06:58:04;98468.13;;;12.07;64.00
10587;BME280;5341;47.606;7.576;2023-02-23T07:00:32;98475.31;;;12.07;64.19
10587;BME280;5341;47.606;7.576;2023-02-23T07:03:00;98479.66;;;12.08;64.12
10587;BME280;5341;47.606;7.576;2023-02-23T07:05:28;98476.16;;;12.07;63.64
10587;BME280;5341;47.606;7.576;2023-02-23T07:07:55;98470.78;;;12.07;64.22
10587;BME280;5341;47.606;7.576;2023-02-23T07:10:24;98473.47;;;12.07;63.98
10587;BME280;5341;47.606;7.576;2023-02-23T07:12:52;98471.19;;;12.04;64.22
10587;BME280;5341;47.606;7.576;2023-02-23T07:15:20;98466.88;;;12.03;64.51
10587;BME280;5341;47.606;7.576;2023-02-23T07:17:48;98472.22;;;12.03;64.11
10587;BME280;5341;47.606;7.576;2023-02-23T07:20:17;98474.91;;;12.03;64.67
10587;BME280;5341;47.606;7.576;2023-02-23T07:22:45;98480.06;;;12.05;64.50
10587;BME280;5341;47.606;7.576;2023-02-23T07:25:13;98475.53;;;12.05;64.28
10587;BME280;5341;47.606;7.576;2023-02-23T07:27:41;98480.88;;;12.05;64.70
10587;BME280;5341;47.606;7.576;2023-02-23T07:30:11;98481.72;;;12.06;64.31
10587;BME280;5341;47.606;7.576;2023-02-23T07:32:39;98482.53;;;12.06;64.71
10587;BME280;5341;47.606;7.576;2023-02-23T07:35:07;98480.88;;;12.05;65.04
10587;BME280;5341;47.606;7.576;2023-02-23T07:37:34;98492.44;;;12.06;64.70
10587;BME280;5341;47.606;7.576;2023-02-23T07:40:02;98483.38;;;12.07;65.05
10587;BME280;5341;47.606;7.576;2023-02-23T07:42:29;98486.88;;;12.07;64.83
10587;BME280;5341;47.606;7.576;2023-02-23T07:44:58;98487.50;;;12.09;65.02
10587;BME280;5341;47.606;7.576;2023-02-23T07:47:26;98491.00;;;12.10;65.28
10587;BME280;5341;47.606;7.576;2023-02-23T07:49:56;98491.84;;;12.10;65.05
10587;BME280;5341;47.606;7.576;2023-02-23T07:52:25;98488.13;;;12.11;65.03
10587;BME280;5341;47.606;7.576;2023-02-23T07:54:53;98488.78;;;12.13;65.32
10587;BME280;5341;47.606;7.576;2023-02-23T07:57:20;98491.25;;;12.15;65.26
10587;BME280;5341;47.606;7.576;2023-02-23T07:59:48;98491.06;;;12.16;64.77
10587;BME280;5341;47.606;7.576;2023-02-23T08:02:17;98493.53;;;12.18;64.69
10587;BME280;5341;47.606;7.576;2023-02-23T08:04:44;98489.81;;;12.19;64.63
10587;BME280;5341;47.606;7.576;2023-02-23T08:07:12;98492.31;;;12.20;64.71
10587;BME280;5341;47.606;7.576;2023-02-23T08:09:40;98496.63;;;12.21;64.54
10587;BME280;5341;47.606;7.576;2023-02-23T08:12:07;98496.63;;;12.21;64.75
10587;BME280;5341;47.606;7.576;2023-02-23T08:14:35;98491.91;;;12.23;65.29
10587;BME280;5341;47.606;7.576;2023-02-23T08:17:02;98492.53;;;12.25;65.15
10587;BME280;5341;47.606;7.576;2023-02-23T08:19:31;98497.72;;;12.27;65.14
10587;BME280;5341;47.606;7.576;2023-02-23T08:21:58;98498.31;;;12.29;65.21
10587;BME280;5341;47.606;7.576;2023-02-23T08:24:27;98486.56;;;12.30;65.93
10587;BME280;5341;47.606;7.576;2023-02-23T08:26:56;98491.53;;;12.33;65.54
10587;BME280;5341;47.606;7.576;2023-02-23T08:29:28;98498.34;;;12.36;65.92
10587;BME280;5341;47.606;7.576;2023-02-23T08:31:56;98502.50;;;12.38;65.96
10587;BME280;5341;47.606;7.576;2023-02-23T08:34:24;98489.72;;;12.40;65.85
10587;BME280;5341;47.606;7.576;2023-02-23T08:36:55;98504.38;;;12.44;65.89
10587;BME280;5341;47.606;7.576;2023-02-23T08:39:23;98497.75;;;12.47;66.43
10587;BME280;5341;47.606;7.576;2023-02-23T08:41:51;98493.22;;;12.47;66.69
10587;BME280;5341;47.606;7.576;2023-02-23T08:44:20;98495.53;;;12.50;66.29
10587;BME280;5341;47.606;7.576;2023-02-23T08:46:47;98508.53;;;12.53;66.38
10587;BME280;5341;47.606;7.576;2023-02-23T08:49:15;98512.03;;;12.54;66.46
10587;BME280;5341;47.606;7.576;2023-02-23T08:51:42;98506.47;;;12.55;67.07
10587;BME280;5341;47.606;7.576;2023-02-23T08:54:13;98499.03;;;12.57;67.14
10587;BME280;5341;47.606;7.576;2023-02-23T08:56:42;98498.84;;;12.59;66.51
10587;BME280;5341;47.606;7.576;2023-02-23T08:59:11;98505.69;;;12.61;66.95
10587;BME280;5341;47.606;7.576;2023-02-23T09:01:38;98505.28;;;12.65;67.19
10587;BME280;5341;47.606;7.576;2023-02-23T09:04:07;98504.88;;;12.68;67.06
10587;BME280;5341;47.606;7.576;2023-02-23T09:06:35;98502.59;;;12.71;67.21
10587;BME280;5341;47.606;7.576;2023-02-23T09:09:04;98507.78;;;12.73;66.87
10587;BME280;5341;47.606;7.576;2023-02-23T09:11:33;98510.06;;;12.76;66.94
10587;BME280;5341;47.606;7.576;2023-02-23T09:14:00;98510.88;;;12.76;67.23
10587;BME280;5341;47.606;7.576;2023-02-23T09:16:27;98508.81;;;12.78;67.23
10587;BME280;5341;47.606;7.576;2023-02-23T09:18:55;98506.53;;;12.82;67.07
10587;BME280;5341;47.606;7.576;2023-02-23T09:21:24;98503.47;;;12.85;66.99
10587;BME280;5341;47.606;7.576;2023-02-23T09:23:53;98508.66;;;12.86;66.92
10587;BME280;5341;47.606;7.576;2023-02-23T09:26:21;98508.84;;;12.91;67.31
10587;BME280;5341;47.606;7.576;2023-02-23T09:28:52;98509.25;;;12.95;66.90
10587;BME280;5341;47.606;7.576;2023-02-23T09:31:21;98511.34;;;13.00;67.35
10587;BME280;5341;47.606;7.576;2023-02-23T09:33:49;98508.03;;;13.04;66.92
10587;BME280;5341;47.606;7.576;2023-02-23T09:36:19;98510.97;;;13.09;66.92
10587;BME280;5341;47.606;7.576;2023-02-23T09:38:48;98507.66;;;13.14;66.76
10587;BME280;5341;47.606;7.576;2023-02-23T09:44:20;98513.47;;;13.24;67.36
10587;BME280;5341;47.606;7.576;2023-02-23T09:46:53;98516.38;;;13.29;66.96
10587;BME280;5341;47.606;7.576;2023-02-23T09:49:27;98517.63;;;13.33;67.11
10587;BME280;5341;47.606;7.576;2023-02-23T09:51:57;98503.78;;;13.36;67.53
10587;BME280;5341;47.606;7.576;2023-02-23T09:54:29;98510.38;;;13.40;67.09
10587;BME280;5341;47.606;7.576;2023-02-23T09:57:01;98517.19;;;13.43;67.04
10587;BME280;5341;47.606;7.576;2023-02-23T09:59:33;98508.91;;;13.44;66.70
10587;BME280;5341;47.606;7.576;2023-02-23T10:02:06;98499.66;;;13.47;67.14
10587;BME280;5341;47.606;7.576;2023-02-23T10:04:39;98511.63;;;13.51;67.57
10587;BME280;5341;47.606;7.576;2023-02-23T10:07:14;98501.91;;;13.57;67.03
10587;BME280;5341;47.606;7.576;2023-02-23T10:10:02;98500.03;;;13.64;67.44
10587;BME280;5341;47.606;7.576;2023-02-23T10:12:34;98498.19;;;13.71;67.74
10587;BME280;5341;47.606;7.576;2023-02-23T10:15:15;98492.56;;;13.79;67.62
10587;BME280;5341;47.606;7.576;2023-02-23T10:17:54;98491.53;;;13.87;67.68
10587;BME280;5341;47.606;7.576;2023-02-23T10:20:31;98494.84;;;13.95;67.57
10587;BME280;5341;47.606;7.576;2023-02-23T10:23:04;98498.31;;;14.02;67.22
10587;BME280;5341;47.606;7.576;2023-02-23T10:25:37;98493.75;;;14.10;67.28
10587;BME280;5341;47.606;7.576;2023-02-23T10:28:12;98490.22;;;14.16;67.13
10587;BME280;5341;47.606;7.576;2023-02-23T10:30:45;98482.97;;;14.23;66.84
10587;BME280;5341;47.606;7.576;2023-02-23T10:33:17;98494.09;;;14.33;66.88
10587;BME280;5341;47.606;7.576;2023-02-23T10:35:48;98483.50;;;14.38;66.67
10587;BME280;5341;47.606;7.576;2023-02-23T10:38:19;98483.53;;;14.45;67.08
10587;BME280;5341;47.606;7.576;2023-02-23T10:40:53;98488.03;;;14.51;68.05
10587;BME280;5341;47.606;7.576;2023-02-23T10:43:24;98483.09;;;14.54;68.12
10587;BME280;5341;47.606;7.576;2023-02-23T10:45:53;98478.91;;;14.58;68.02
10587;BME280;5341;47.606;7.576;2023-02-23T10:48:24;98486.09;;;14.64;68.27
10587;BME280;5341;47.606;7.576;2023-02-23T10:50:56;98487.75;;;14.72;69.05
10587;BME280;5341;47.606;7.576;2023-02-23T10:53:31;98483.16;;;14.79;68.80
10587;BME280;5341;47.606;7.576;2023-02-23T10:56:03;98483.31;;;14.84;68.51
10587;BME280;5341;47.606;7.576;2023-02-23T10:58:39;98482.66;;;14.89;68.33
10587;BME280;5341;47.606;7.576;2023-02-23T11:01:11;98485.53;;;14.94;68.60
10587;BME280;5341;47.606;7.576;2023-02-23T11:03:41;98483.22;;;14.98;68.57
10587;BME280;5341;47.606;7.576;2023-02-23T11:06:27;98486.94;;;15.03;68.35
10587;BME280;5341;47.606;7.576;2023-02-23T11:08:56;98489.41;;;15.05;67.94
10587;BME280;5341;47.606;7.576;2023-02-23T11:11:25;98488.38;;;15.06;67.65
10587;BME280;5341;47.606;7.576;2023-02-23T11:13:54;98487.91;;;15.09;67.63
10587;BME280;5341;47.606;7.576;2023-02-23T11:16:25;98471.09;;;15.13;67.62
10587;BME280;5341;47.606;7.576;2023-02-23T11:18:56;98480.78;;;15.21;67.11
10587;BME280;5341;47.606;7.576;2023-02-23T11:21:26;98475.38;;;15.28;67.36
10587;BME280;5341;47.606;7.576;2023-02-23T11:24:09;98472.59;;;15.34;67.70
10587;BME280;5341;47.606;7.576;2023-02-23T11:26:40;98478.19;;;15.39;67.33
10587;BME280;5341;47.606;7.576;2023-02-23T11:29:14;98471.66;;;15.47;66.86
10587;BME280;5341;47.606;7.576;2023-02-23T11:31:48;98471.41;;;15.55;66.44
10587;BME280;5341;47.606;7.576;2023-02-23T11:34:22;98467.00;;;15.61;66.21
10587;BME280;5341;47.606;7.576;2023-02-23T11:36:59;98459.91;;;15.66;66.46
10587;BME280;5341;47.606;7.576;2023-02-23T11:39:27;98458.78;;;15.74;65.58
10587;BME280;5341;47.606;7.576;2023-02-23T11:42:13;98453.72;;;15.84;64.31
10587;BME280;5341;47.606;7.576;2023-02-23T11:44:41;98456.13;;;15.92;63.97
10587;BME280;5341;47.606;7.576;2023-02-23T11:47:16;98451.88;;;16.03;63.08
10587;BME280;5341;47.606;7.576;2023-02-23T11:49:45;98449.31;;;16.08;62.25
10587;BME280;5341;47.606;7.576;2023-02-23T11:52:16;98451.34;;;16.13;61.60
10587;BME280;5341;47.606;7.576;2023-02-23T11:54:51;98447.72;;;16.19;60.97
10587;BME280;5341;47.606;7.576;2023-02-23T11:57:20;98446.44;;;16.21;61.63
10587;BME280;5341;47.606;7.576;2023-02-23T11:59:48;98446.59;;;16.26;61.72
10587;BME280;5341;47.606;7.576;2023-02-23T12:02:22;98449.66;;;16.30;62.26
10587;BME280;5341;47.606;7.576;2023-02-23T12:04:51;98448.03;;;16.29;62.84
10587;BME280;5341;47.606;7.576;2023-02-23T12:07:28;98448.63;;;16.31;62.38
10587;BME280;5341;47.606;7.576;2023-02-23T12:10:02;98437.81;;;16.31;61.76
10587;BME280;5341;47.606;7.576;2023-02-23T12:12:39;98434.88;;;16.32;62.05
10587;BME280;5341;47.606;7.576;2023-02-23T12:15:16;98438.41;;;16.33;61.47
10587;BME280;5341;47.606;7.576;2023-02-23T12:17:50;98439.84;;;16.35;61.40
10587;BME280;5341;47.606;7.576;2023-02-23T12:20:24;98445.63;;;16.39;61.32
10587;BME280;5341;47.606;7.576;2023-02-23T12:22:56;98442.47;;;16.42;61.04
10587;BME280;5341;47.606;7.576;2023-02-23T12:25:29;98437.66;;;16.44;60.92
10587;BME280;5341;47.606;7.576;2023-02-23T12:28:03;98436.75;;;16.50;61.13
10587;BME280;5341;47.606;7.576;2023-02-23T12:30:41;98431.47;;;16.55;61.30
10587;BME280;5341;47.606;7.576;2023-02-23T12:33:15;98434.09;;;16.62;60.97
10587;BME280;5341;47.606;7.576;2023-02-23T12:35:50;98429.06;;;16.65;60.67
10587;BME280;5341;47.606;7.576;2023-02-23T12:38:28;98424.88;;;16.69;60.63
10587;BME280;5341;47.606;7.576;2023-02-23T12:41:03;98432.31;;;16.74;60.26
10587;BME280;5341;47.606;7.576;2023-02-23T12:43:39;98427.03;;;16.79;60.98
10587;BME280;5341;47.606;7.576;2023-02-23T12:46:16;98427.59;;;16.81;60.99
10587;BME280;5341;47.606;7.576;2023-02-23T12:48:54;98420.72;;;16.85;61.06
10587;BME280;5341;47.606;7.576;2023-02-23T12:51:29;98420.59;;;16.92;60.37
10587;BME280;5341;47.606;7.576;2023-02-23T12:53:57;98414.28;;;16.98;60.28
10587;BME280;5341;47.606;7.576;2023-02-23T12:56:38;98412.50;;;17.04;59.68
10587;BME280;5341;47.606;7.576;2023-02-23T12:59:22;98412.66;;;17.09;60.11
10587;BME280;5341;47.606;7.576;2023-02-23T13:01:56;98414.06;;;17.11;59.68
10587;BME280;5341;47.606;7.576;2023-02-23T13:04:42;98408.19;;;17.14;58.97
10587;BME280;5341;47.606;7.576;2023-02-23T13:07:19;98406.31;;;17.15;58.67
10587;BME280;5341;47.606;7.576;2023-02-23T13:09:59;98400.66;;;17.16;58.48
10587;BME280;5341;47.606;7.576;2023-02-23T13:12:38;98402.91;;;17.19;58.54
10587;BME280;5341;47.606;7.576;2023-02-23T13:15:19;98402.69;;;17.21;59.47
10587;BME280;5341;47.606;7.576;2023-02-23T13:17:54;98398.69;;;17.23;60.03
10587;BME280;5341;47.606;7.576;2023-02-23T13:20:31;98400.91;;;17.26;60.36
10587;BME280;5341;47.606;7.576;2023-02-23T13:23:09;98402.69;;;17.33;60.44
10587;BME280;5341;47.606;7.576;2023-02-23T13:25:46;98396.09;;;17.40;58.24
10587;BME280;5341;47.606;7.576;2023-02-23T13:28:19;98397.63;;;17.48;58.94
10587;BME280;5341;47.606;7.576;2023-02-23T13:30:49;98390.94;;;17.50;59.70
10587;BME280;5341;47.606;7.576;2023-02-23T13:33:24;98396.91;;;17.52;58.65
10587;BME280;5341;47.606;7.576;2023-02-23T13:35:55;98399.28;;;17.61;58.75
10587;BME280;5341;47.606;7.576;2023-02-23T13:38:30;98398.56;;;17.65;58.74
10587;BME280;5341;47.606;7.576;2023-02-23T13:41:06;98399.78;;;17.69;59.64
10587;BME280;5341;47.606;7.576;2023-02-23T13:43:42;98390.22;;;17.78;58.70
10587;BME280;5341;47.606;7.576;2023-02-23T13:46:23;98383.63;;;17.86;59.67